createdAt,value
2019-02-28T00:04:58.003Z,34.13
2019-02-28T00:10:01.495Z,57.40
2019-02-28T00:15:05.763Z,57.87
2019-02-28T00:20:10.661Z,50.00
2019-02-28T00:25:14.677Z,41.73
2019-02-28T00:30:18.087Z,48.40
2019-02-28T00:35:21.506Z,52.80
2019-02-28T00:40:25.218Z,45.63
2019-02-28T00:45:29.030Z,32.87
2019-02-28T00:50:32.881Z,30.13
2019-02-28T00:55:37.046Z,44.67
2019-02-28T01:00:40.594Z,59.63
2019-02-28T01:05:44.167Z,39.10
2019-02-28T01:10:47.542Z,31.17
2019-02-28T01:15:50.853Z,54.23
2019-02-28T01:20:54.150Z,44.47
2019-02-28T01:25:57.505Z,45.50
2019-02-28T01:31:01.443Z,102.90
2019-02-28T01:36:05.531Z,41.10
2019-02-28T01:41:11.231Z,41.03
2019-02-28T01:46:17.271Z,116.13
2019-02-28T01:51:21.034Z,72.47
2019-02-28T01:56:24.579Z,39.40
2019-02-28T02:01:28.509Z,54.17
2019-02-28T02:06:33.502Z,75.97
2019-02-28T02:11:38.350Z,35.27
2019-02-28T02:16:41.736Z,70.37
2019-02-28T02:21:45.047Z,29.43
2019-02-28T02:26:48.355Z,45.93
2019-02-28T02:31:52.640Z,31.10
2019-02-28T02:36:56.348Z,54.33
2019-02-28T02:41:59.646Z,108.53
2019-02-28T02:47:02.974Z,103.00
2019-02-28T02:52:06.440Z,63.00
2019-02-28T02:57:13.959Z,293.20
2019-02-28T03:02:15.554Z,248.63
2019-02-28T03:07:24.512Z,243.60
2019-02-28T03:12:24.767Z,204.50
2019-02-28T03:17:28.101Z,395.47
2019-02-28T03:22:31.870Z,394.67
2019-02-28T03:27:35.157Z,521.60
2019-02-28T03:32:41.955Z,446.63
2019-02-28T03:37:44.488Z,752.07
2019-02-28T03:42:48.189Z,933.07
2019-02-28T03:47:58.441Z,969.63
2019-02-28T03:52:57.694Z,999.90
2019-02-28T03:58:05.449Z,999.90
2019-02-28T04:03:06.795Z,968.50
2019-02-28T04:08:10.490Z,999.90
2019-02-28T04:13:14.177Z,999.90
2019-02-28T04:18:17.919Z,999.90
2019-02-28T04:23:21.342Z,999.90
2019-02-28T04:28:25.113Z,941.10
2019-02-28T04:33:28.881Z,999.37
2019-02-28T04:38:32.596Z,995.73
2019-02-28T04:43:36.340Z,995.90
2019-02-28T04:48:40.176Z,936.97
2019-02-28T04:53:44.141Z,999.90
2019-02-28T04:58:47.423Z,999.90
2019-02-28T05:03:52.697Z,999.90
2019-02-28T05:08:56.462Z,999.90
2019-02-28T05:14:00.137Z,976.73
2019-02-28T05:19:04.430Z,999.90
2019-02-28T05:24:08.678Z,990.17
2019-02-28T05:29:13.059Z,925.83
2019-02-28T05:34:16.826Z,999.90
2019-02-28T05:39:20.658Z,997.67
2019-02-28T05:44:23.986Z,999.90
2019-02-28T05:49:27.561Z,999.90
2019-02-28T05:54:31.509Z,709.60
2019-02-28T05:59:37.446Z,999.90
2019-02-28T06:04:41.282Z,832.90
2019-02-28T06:09:45.529Z,773.30
2019-02-28T06:14:50.747Z,784.57
2019-02-28T06:19:54.186Z,859.93
2019-02-28T06:24:57.926Z,847.20
2019-02-28T06:30:01.297Z,744.10
2019-02-28T06:35:08.230Z,645.17
2019-02-28T06:40:14.122Z,916.20
2019-02-28T06:45:18.839Z,666.30
2019-02-28T06:50:23.267Z,715.30
2019-02-28T06:55:27.339Z,730.03
2019-02-28T07:00:31.793Z,771.17
2019-02-28T07:05:38.223Z,999.90
2019-02-28T07:10:45.005Z,804.30
2019-02-28T07:15:50.653Z,968.63
2019-02-28T07:20:55.278Z,999.90
2019-02-28T07:26:00.372Z,999.90
2019-02-28T07:31:05.787Z,863.27
2019-02-28T07:36:12.159Z,897.93
2019-02-28T07:41:20.224Z,999.90
2019-02-28T07:46:25.575Z,999.90
2019-02-28T07:51:29.307Z,999.90
2019-02-28T07:56:32.586Z,999.90
2019-02-28T08:01:35.938Z,989.90
2019-02-28T08:06:40.509Z,999.90
2019-02-28T08:11:44.455Z,999.90
2019-02-28T08:16:48.188Z,999.90
2019-02-28T08:21:52.151Z,878.10
2019-02-28T08:26:55.512Z,999.90
2019-02-28T08:31:59.474Z,825.00
2019-02-28T08:37:03.093Z,999.90
2019-02-28T08:42:07.010Z,999.90
2019-02-28T08:47:12.029Z,999.90
2019-02-28T08:52:15.361Z,999.90
2019-02-28T08:57:21.901Z,318.63
2019-02-28T09:02:24.366Z,490.63
2019-02-28T09:07:27.825Z,999.90
2019-02-28T09:12:33.299Z,999.90
2019-02-28T09:17:37.849Z,999.90
2019-02-28T09:22:41.316Z,709.10
2019-02-28T09:27:44.648Z,446.47
2019-02-28T09:32:48.209Z,999.90
2019-02-28T09:37:52.358Z,464.23
2019-02-28T09:42:56.170Z,400.20
2019-02-28T09:48:01.973Z,716.53
2019-02-28T09:53:04.690Z,999.90
2019-02-28T09:58:07.974Z,696.20
2019-02-28T10:03:11.256Z,531.13
2019-02-28T10:08:14.606Z,999.90
2019-02-28T10:13:18.519Z,999.90
2019-02-28T10:18:22.179Z,701.83
2019-02-28T10:23:25.710Z,999.90
2019-02-28T10:28:29.285Z,999.90
2019-02-28T10:33:32.564Z,999.90
2019-02-28T10:38:35.953Z,275.00
2019-02-28T10:43:39.345Z,999.90
2019-02-28T10:48:50.873Z,205.80
2019-02-28T10:53:48.761Z,999.90
2019-02-28T10:58:53.804Z,768.57
2019-02-28T11:03:57.134Z,999.90
2019-02-28T11:09:01.044Z,459.80
2019-02-28T11:14:05.021Z,203.60
2019-02-28T11:19:08.845Z,716.63
2019-02-28T11:24:12.741Z,999.90
2019-02-28T11:29:16.069Z,112.00
2019-02-28T11:34:20.197Z,999.90
2019-02-28T11:39:23.490Z,484.70
2019-02-28T11:44:27.397Z,419.50
2019-02-28T11:49:31.544Z,999.90
2019-02-28T11:54:35.598Z,999.90
2019-02-28T11:59:39.450Z,566.87
2019-02-28T12:04:42.786Z,545.50
2019-02-28T12:09:47.002Z,999.90
2019-02-28T12:14:50.353Z,999.90
2019-02-28T12:19:53.825Z,999.90
2019-02-28T12:24:57.150Z,723.93
2019-02-28T12:30:00.521Z,765.07
2019-02-28T12:35:04.854Z,694.90
2019-02-28T12:40:10.332Z,999.90
2019-02-28T12:45:21.193Z,999.90
2019-02-28T12:50:23.634Z,999.90
2019-02-28T12:55:27.486Z,568.40
2019-02-28T13:00:31.952Z,624.90
2019-02-28T13:05:35.245Z,707.73
2019-02-28T13:10:39.489Z,999.90
2019-02-28T13:15:45.481Z,999.90
2019-02-28T13:20:47.812Z,999.90
2019-02-28T13:25:51.089Z,999.90
2019-02-28T13:30:54.402Z,485.07
2019-02-28T13:35:58.177Z,999.90
2019-02-28T13:41:01.915Z,999.90
2019-02-28T13:46:05.292Z,999.90
2019-02-28T13:51:08.855Z,999.90
2019-02-28T13:56:12.137Z,389.87
2019-02-28T14:01:19.447Z,999.90
2019-02-28T14:06:21.329Z,999.90
2019-02-28T14:11:25.065Z,397.57
2019-02-28T14:16:28.642Z,140.93
2019-02-28T14:21:34.367Z,999.90
2019-02-28T14:26:42.730Z,280.47
2019-02-28T14:31:42.038Z,999.90
2019-02-28T14:36:46.176Z,999.90
2019-02-28T14:41:49.870Z,999.90
2019-02-28T14:46:54.130Z,999.90
2019-02-28T14:52:00.333Z,266.23
2019-02-28T14:57:02.649Z,483.97
2019-02-28T15:02:05.941Z,999.90
2019-02-28T15:07:09.242Z,999.90
2019-02-28T15:12:12.619Z,88.87
2019-02-28T15:17:15.925Z,999.90
2019-02-28T15:22:21.259Z,691.43
2019-02-28T15:27:24.329Z,420.50
2019-02-28T15:32:27.626Z,145.77
2019-02-28T15:37:33.726Z,999.90
2019-02-28T15:42:39.656Z,397.83
2019-02-28T15:47:41.962Z,999.90
2019-02-28T15:52:45.765Z,999.90
2019-02-28T15:57:49.122Z,999.90
2019-02-28T16:02:52.494Z,403.70
2019-02-28T16:07:56.418Z,999.90
2019-02-28T16:12:59.847Z,164.57
2019-02-28T16:18:03.213Z,999.90
2019-02-28T16:23:06.615Z,999.90
2019-02-28T16:28:10.466Z,999.90
2019-02-28T16:33:13.857Z,999.90
2019-02-28T16:38:17.253Z,999.90
2019-02-28T16:43:21.686Z,999.90
2019-02-28T16:48:25.006Z,999.90
2019-02-28T16:53:28.545Z,422.77
2019-02-28T16:58:32.280Z,999.90
2019-02-28T17:03:38.382Z,999.90
2019-02-28T17:08:48.495Z,999.90
2019-02-28T17:14:00.156Z,999.90
2019-02-28T17:19:04.036Z,999.90
2019-02-28T17:24:08.733Z,999.90
2019-02-28T17:29:25.191Z,999.90
2019-02-28T17:34:27.736Z,999.90
2019-02-28T17:39:33.195Z,999.90
2019-02-28T17:44:41.947Z,999.90
2019-02-28T17:50:05.629Z,999.90
2019-02-28T17:55:23.114Z,999.90
2019-02-28T18:00:42.396Z,999.90
2019-02-28T18:06:00.922Z,999.90
2019-02-28T18:11:10.582Z,999.90
2019-02-28T18:16:39.338Z,999.90
2019-02-28T18:22:00.650Z,999.90
2019-02-28T18:27:29.510Z,999.90
2019-02-28T18:32:34.231Z,407.47
2019-02-28T18:37:38.142Z,390.47
2019-02-28T18:42:41.559Z,96.53
2019-02-28T18:47:45.378Z,423.10
2019-02-28T18:52:48.971Z,999.90
2019-02-28T18:57:52.981Z,999.90
2019-02-28T19:02:57.078Z,999.90
2019-02-28T19:08:01.336Z,999.90
2019-02-28T19:13:05.081Z,999.90
2019-02-28T19:18:08.395Z,999.90
2019-02-28T19:23:12.105Z,999.90
2019-02-28T19:28:16.165Z,999.90
2019-02-28T19:33:19.465Z,999.90
2019-02-28T19:38:23.326Z,999.90
2019-02-28T19:43:26.783Z,999.90
2019-02-28T19:48:30.153Z,999.90
2019-02-28T19:53:33.905Z,999.90
2019-02-28T19:58:37.461Z,999.90
2019-02-28T20:03:41.214Z,999.90
2019-02-28T20:08:49.215Z,999.90
2019-02-28T20:13:53.263Z,999.90
2019-02-28T20:18:56.829Z,999.90
2019-02-28T20:24:02.657Z,999.90
2019-02-28T20:29:06.645Z,999.90
2019-02-28T20:34:10.776Z,999.90
2019-02-28T20:39:14.972Z,999.90
2019-02-28T20:44:18.859Z,999.90
2019-02-28T20:49:22.329Z,999.90
2019-02-28T20:54:25.994Z,999.90
2019-02-28T20:59:29.300Z,999.90
2019-02-28T21:04:33.236Z,999.90
2019-02-28T21:09:44.734Z,999.90
2019-02-28T21:14:42.655Z,999.90
2019-02-28T21:19:46.073Z,999.90
2019-02-28T21:24:49.626Z,999.90
2019-02-28T21:29:53.382Z,999.90
2019-02-28T21:34:57.002Z,999.90
2019-02-28T21:40:01.402Z,999.90
2019-02-28T21:45:05.194Z,999.90
2019-02-28T21:50:09.507Z,999.90
2019-02-28T21:55:13.052Z,999.90
2019-02-28T22:00:17.625Z,999.90
2019-02-28T22:05:21.682Z,999.90
2019-02-28T22:10:25.391Z,999.90
2019-02-28T22:15:28.705Z,999.90
2019-02-28T22:20:32.018Z,999.90
2019-02-28T22:25:35.890Z,999.90
2019-02-28T22:31:02.528Z,999.90
2019-02-28T22:36:07.398Z,999.90
2019-02-28T22:41:11.157Z,999.90
2019-02-28T22:46:14.469Z,999.90
2019-02-28T22:51:18.190Z,999.90
2019-02-28T22:56:21.923Z,999.90
2019-02-28T23:01:26.074Z,999.90
2019-02-28T23:06:29.422Z,999.90
2019-02-28T23:11:32.861Z,999.90
2019-02-28T23:16:36.282Z,999.90
2019-02-28T23:21:40.811Z,999.90
2019-02-28T23:27:10.097Z,999.90
2019-02-28T23:32:31.321Z,999.90
2019-02-28T23:37:35.038Z,999.90
2019-02-28T23:42:38.869Z,999.90
2019-02-28T23:47:42.250Z,999.90
2019-02-28T23:52:45.630Z,999.90
2019-02-28T23:57:49.666Z,999.90
